Página principal
METAR-TAF:

METAR-TAF

Aeroportos :

Pago Pago, Ilhas Menores Distantes dos Estados Unidos

latitude: 14-20S, longitude: 170-43W, altura: 3 m

Observação actual do tempo

O boletim foi feito há 5 minutos, às 00:51 UTC
Vento 9 kt de es-sudeste
Temperatura 30°C
Humidade 75%
Pressão 1007 hPa
Visibilidade: 19.3 km
Nuvens dispersasa uma altura de 2000 ft

METAR: NSTU 130051Z 11009KT 12SM SCT020 30/25 A2975 RMK SLP075 T03010250

Hora: 13:56 (00:56 UTC)

Previsão

O boletim foi feito há 1 hora e 16 minutos, às 23:40 UTC
Previsão válida de 13 às 00 UTC a 13 às 24 UTC
Vento 11 kt de es-sudeste
Visibilidade: 10 km
Poucas nuvensa uma altura de 2000 ft
Nuvens dispersasa uma altura de 4000 ft
Nuvens fragmentadasa uma altura de 10000 ft

TAF: NSTU 122340Z 1300/1324 11011KT P6SM FEW020 SCT040 BKN100

Observações e previsões do tempo de mais de 4000 aeroportos (mensagens METAR e TAF).

As estações disponíveis são os pontos amarelos e vermelhos sobre o mapa.

Mova o rato sobre o mapa para ver o nome da estação.

Depois clique no ponto para visualizar as observações e previsões meteorológicas.

Para alterar o mapa : clique nos botões verdes com uma cruz preta para aumentar o zoom; no botão verde com uma pitada de zoom; ou nas setas verdes para mapas adjacentes.


METAR-TAF: